sensor_id;sensor_type;location;lat;lon;timestamp;P1;durP1;ratioP1;P2;durP2;ratioP2
67640;SDS011;54434;50.096;20.082;2022-08-21T00:02:12;25.50;;;16.10;;
67640;SDS011;54434;50.096;20.082;2022-08-21T00:04:50;25.00;;;16.00;;
67640;SDS011;54434;50.096;20.082;2022-08-21T00:07:29;32.40;;;15.80;;
67640;SDS011;54434;50.096;20.082;2022-08-21T00:10:08;26.10;;;16.90;;
67640;SDS011;54434;50.096;20.082;2022-08-21T00:12:46;26.80;;;16.50;;
67640;SDS011;54434;50.096;20.082;2022-08-21T00:15:25;29.60;;;16.90;;
67640;SDS011;54434;50.096;20.082;2022-08-21T00:18:04;31.40;;;17.70;;
67640;SDS011;54434;50.096;20.082;2022-08-21T00:20:43;30.30;;;17.00;;
67640;SDS011;54434;50.096;20.082;2022-08-21T00:23:20;31.70;;;17.10;;
67640;SDS011;54434;50.096;20.082;2022-08-21T00:25:56;30.10;;;17.20;;
67640;SDS011;54434;50.096;20.082;2022-08-21T00:28:34;26.50;;;16.20;;
67640;SDS011;54434;50.096;20.082;2022-08-21T00:31:10;27.60;;;16.40;;
67640;SDS011;54434;50.096;20.082;2022-08-21T00:33:47;29.30;;;16.50;;
67640;SDS011;54434;50.096;20.082;2022-08-21T00:36:23;27.60;;;16.30;;
67640;SDS011;54434;50.096;20.082;2022-08-21T00:38:59;27.90;;;17.00;;
67640;SDS011;54434;50.096;20.082;2022-08-21T00:41:37;25.60;;;17.50;;
67640;SDS011;54434;50.096;20.082;2022-08-21T00:44:15;26.90;;;17.00;;
67640;SDS011;54434;50.096;20.082;2022-08-21T00:46:51;26.60;;;16.60;;
67640;SDS011;54434;50.096;20.082;2022-08-21T00:49:27;28.70;;;17.60;;
67640;SDS011;54434;50.096;20.082;2022-08-21T00:52:05;29.40;;;17.50;;
67640;SDS011;54434;50.096;20.082;2022-08-21T00:54:43;26.10;;;16.40;;
67640;SDS011;54434;50.096;20.082;2022-08-21T00:57:26;29.20;;;17.00;;
67640;SDS011;54434;50.096;20.082;2022-08-21T01:00:19;25.80;;;16.20;;
67640;SDS011;54434;50.096;20.082;2022-08-21T01:02:59;26.50;;;16.70;;
67640;SDS011;54434;50.096;20.082;2022-08-21T01:05:42;25.90;;;16.30;;
67640;SDS011;54434;50.096;20.082;2022-08-21T01:08:20;26.00;;;16.50;;
67640;SDS011;54434;50.096;20.082;2022-08-21T01:10:58;26.10;;;16.90;;
67640;SDS011;54434;50.096;20.082;2022-08-21T01:13:37;29.20;;;17.70;;
67640;SDS011;54434;50.096;20.082;2022-08-21T01:16:21;27.30;;;17.30;;
67640;SDS011;54434;50.096;20.082;2022-08-21T01:18:58;26.10;;;17.00;;
67640;SDS011;54434;50.096;20.082;2022-08-21T01:21:34;26.80;;;18.20;;
67640;SDS011;54434;50.096;20.082;2022-08-21T01:24:10;29.80;;;17.30;;
67640;SDS011;54434;50.096;20.082;2022-08-21T01:26:47;34.30;;;18.90;;
67640;SDS011;54434;50.096;20.082;2022-08-21T01:29:32;30.50;;;17.90;;
67640;SDS011;54434;50.096;20.082;2022-08-21T01:32:15;32.40;;;19.10;;
67640;SDS011;54434;50.096;20.082;2022-08-21T01:34:53;29.90;;;18.00;;
67640;SDS011;54434;50.096;20.082;2022-08-21T01:37:29;31.40;;;18.20;;
67640;SDS011;54434;50.096;20.082;2022-08-21T01:40:08;27.10;;;17.80;;
67640;SDS011;54434;50.096;20.082;2022-08-21T01:42:46;28.80;;;17.40;;
67640;SDS011;54434;50.096;20.082;2022-08-21T01:45:22;28.70;;;18.00;;
67640;SDS011;54434;50.096;20.082;2022-08-21T01:47:58;32.00;;;18.20;;
67640;SDS011;54434;50.096;20.082;2022-08-21T01:50:36;28.70;;;18.40;;
67640;SDS011;54434;50.096;20.082;2022-08-21T01:53:12;30.00;;;17.80;;
67640;SDS011;54434;50.096;20.082;2022-08-21T01:55:48;32.50;;;18.30;;
67640;SDS011;54434;50.096;20.082;2022-08-21T01:58:24;32.10;;;19.00;;
67640;SDS011;54434;50.096;20.082;2022-08-21T02:01:00;32.80;;;18.30;;
67640;SDS011;54434;50.096;20.082;2022-08-21T02:03:37;29.90;;;18.40;;
67640;SDS011;54434;50.096;20.082;2022-08-21T02:06:17;31.70;;;18.30;;
67640;SDS011;54434;50.096;20.082;2022-08-21T02:08:53;26.50;;;17.70;;
67640;SDS011;54434;50.096;20.082;2022-08-21T02:11:30;31.10;;;18.30;;
67640;SDS011;54434;50.096;20.082;2022-08-21T02:14:07;29.60;;;18.40;;
67640;SDS011;54434;50.096;20.082;2022-08-21T02:16:46;31.60;;;17.80;;
67640;SDS011;54434;50.096;20.082;2022-08-21T02:19:37;30.90;;;18.10;;
67640;SDS011;54434;50.096;20.082;2022-08-21T02:22:13;29.30;;;17.80;;
67640;SDS011;54434;50.096;20.082;2022-08-21T02:24:49;31.20;;;17.30;;
67640;SDS011;54434;50.096;20.082;2022-08-21T02:27:28;32.50;;;18.60;;
67640;SDS011;54434;50.096;20.082;2022-08-21T02:30:15;30.00;;;19.30;;
67640;SDS011;54434;50.096;20.082;2022-08-21T02:32:55;31.70;;;18.90;;
67640;SDS011;54434;50.096;20.082;2022-08-21T02:35:32;30.80;;;18.00;;
67640;SDS011;54434;50.096;20.082;2022-08-21T02:38:17;27.30;;;17.80;;
67640;SDS011;54434;50.096;20.082;2022-08-21T02:40:55;29.30;;;17.70;;
67640;SDS011;54434;50.096;20.082;2022-08-21T02:43:32;30.10;;;17.90;;
67640;SDS011;54434;50.096;20.082;2022-08-21T02:46:11;28.50;;;18.20;;
67640;SDS011;54434;50.096;20.082;2022-08-21T02:48:48;28.90;;;17.60;;
67640;SDS011;54434;50.096;20.082;2022-08-21T02:51:24;27.60;;;17.30;;
67640;SDS011;54434;50.096;20.082;2022-08-21T02:54:00;29.80;;;18.10;;
67640;SDS011;54434;50.096;20.082;2022-08-21T02:56:36;28.70;;;17.60;;
67640;SDS011;54434;50.096;20.082;2022-08-21T02:59:13;34.30;;;19.00;;
67640;SDS011;54434;50.096;20.082;2022-08-21T03:01:49;31.40;;;18.20;;
67640;SDS011;54434;50.096;20.082;2022-08-21T03:04:25;30.40;;;19.10;;
67640;SDS011;54434;50.096;20.082;2022-08-21T03:07:01;29.00;;;18.80;;
67640;SDS011;54434;50.096;20.082;2022-08-21T03:09:43;28.80;;;17.50;;
67640;SDS011;54434;50.096;20.082;2022-08-21T03:12:27;29.40;;;18.50;;
67640;SDS011;54434;50.096;20.082;2022-08-21T03:15:05;25.70;;;17.70;;
67640;SDS011;54434;50.096;20.082;2022-08-21T03:17:43;30.80;;;18.60;;
67640;SDS011;54434;50.096;20.082;2022-08-21T03:20:24;28.70;;;18.00;;
67640;SDS011;54434;50.096;20.082;2022-08-21T03:23:03;27.40;;;17.80;;
67640;SDS011;54434;50.096;20.082;2022-08-21T03:25:47;29.50;;;17.50;;
67640;SDS011;54434;50.096;20.082;2022-08-21T03:28:27;31.20;;;19.00;;
67640;SDS011;54434;50.096;20.082;2022-08-21T03:31:04;32.20;;;18.00;;
67640;SDS011;54434;50.096;20.082;2022-08-21T03:33:40;32.20;;;19.70;;
67640;SDS011;54434;50.096;20.082;2022-08-21T03:36:16;32.50;;;19.30;;
67640;SDS011;54434;50.096;20.082;2022-08-21T03:38:52;32.40;;;18.90;;
67640;SDS011;54434;50.096;20.082;2022-08-21T03:41:28;30.70;;;20.10;;
67640;SDS011;54434;50.096;20.082;2022-08-21T03:44:05;33.10;;;19.90;;
67640;SDS011;54434;50.096;20.082;2022-08-21T03:46:41;33.60;;;20.80;;
67640;SDS011;54434;50.096;20.082;2022-08-21T03:49:17;30.40;;;20.20;;
67640;SDS011;54434;50.096;20.082;2022-08-21T03:51:54;31.20;;;20.10;;
67640;SDS011;54434;50.096;20.082;2022-08-21T03:54:32;31.20;;;20.10;;
67640;SDS011;54434;50.096;20.082;2022-08-21T03:57:08;27.90;;;18.90;;
67640;SDS011;54434;50.096;20.082;2022-08-21T03:59:45;32.30;;;18.80;;
67640;SDS011;54434;50.096;20.082;2022-08-21T04:02:22;33.00;;;19.20;;
67640;SDS011;54434;50.096;20.082;2022-08-21T04:04:58;30.60;;;19.10;;
67640;SDS011;54434;50.096;20.082;2022-08-21T04:07:34;35.10;;;20.30;;
67640;SDS011;54434;50.096;20.082;2022-08-21T04:10:12;28.20;;;18.50;;
67640;SDS011;54434;50.096;20.082;2022-08-21T04:12:48;31.70;;;18.70;;
67640;SDS011;54434;50.096;20.082;2022-08-21T04:15:26;28.90;;;19.50;;
67640;SDS011;54434;50.096;20.082;2022-08-21T04:18:04;32.60;;;20.40;;
67640;SDS011;54434;50.096;20.082;2022-08-21T04:20:43;30.70;;;18.70;;
67640;SDS011;54434;50.096;20.082;2022-08-21T04:23:23;28.10;;;18.40;;
67640;SDS011;54434;50.096;20.082;2022-08-21T04:26:00;31.10;;;19.40;;
67640;SDS011;54434;50.096;20.082;2022-08-21T04:28:36;33.40;;;19.80;;
67640;SDS011;54434;50.096;20.082;2022-08-21T04:31:12;29.90;;;19.70;;
67640;SDS011;54434;50.096;20.082;2022-08-21T04:33:48;33.60;;;20.50;;
67640;SDS011;54434;50.096;20.082;2022-08-21T04:36:24;34.00;;;21.20;;
67640;SDS011;54434;50.096;20.082;2022-08-21T04:39:00;35.00;;;20.80;;
67640;SDS011;54434;50.096;20.082;2022-08-21T04:41:37;36.70;;;21.40;;
67640;SDS011;54434;50.096;20.082;2022-08-21T04:44:14;33.30;;;20.60;;
67640;SDS011;54434;50.096;20.082;2022-08-21T04:46:50;32.30;;;20.20;;
67640;SDS011;54434;50.096;20.082;2022-08-21T04:49:27;33.80;;;20.50;;
67640;SDS011;54434;50.096;20.082;2022-08-21T04:52:04;38.00;;;20.70;;
67640;SDS011;54434;50.096;20.082;2022-08-21T04:54:41;34.20;;;20.60;;
67640;SDS011;54434;50.096;20.082;2022-08-21T04:57:20;35.40;;;21.30;;
67640;SDS011;54434;50.096;20.082;2022-08-21T05:00:18;35.70;;;20.60;;
67640;SDS011;54434;50.096;20.082;2022-08-21T05:02:58;34.60;;;21.70;;
67640;SDS011;54434;50.096;20.082;2022-08-21T05:05:37;34.30;;;20.80;;
67640;SDS011;54434;50.096;20.082;2022-08-21T05:08:17;36.80;;;20.80;;
67640;SDS011;54434;50.096;20.082;2022-08-21T05:10:58;34.90;;;20.10;;
67640;SDS011;54434;50.096;20.082;2022-08-21T05:13:35;29.70;;;19.40;;
67640;SDS011;54434;50.096;20.082;2022-08-21T05:16:11;32.00;;;19.10;;
67640;SDS011;54434;50.096;20.082;2022-08-21T05:19:07;33.30;;;19.20;;
67640;SDS011;54434;50.096;20.082;2022-08-21T05:21:46;30.80;;;19.10;;
67640;SDS011;54434;50.096;20.082;2022-08-21T05:24:23;28.30;;;17.70;;
67640;SDS011;54434;50.096;20.082;2022-08-21T05:26:59;29.40;;;19.70;;
67640;SDS011;54434;50.096;20.082;2022-08-21T05:29:36;32.50;;;20.20;;
67640;SDS011;54434;50.096;20.082;2022-08-21T05:32:15;28.90;;;18.30;;
67640;SDS011;54434;50.096;20.082;2022-08-21T05:34:51;30.60;;;18.40;;
67640;SDS011;54434;50.096;20.082;2022-08-21T05:37:27;31.50;;;19.10;;
67640;SDS011;54434;50.096;20.082;2022-08-21T05:40:05;30.10;;;18.40;;
67640;SDS011;54434;50.096;20.082;2022-08-21T05:42:56;31.40;;;19.10;;
67640;SDS011;54434;50.096;20.082;2022-08-21T05:45:34;30.00;;;18.70;;
67640;SDS011;54434;50.096;20.082;2022-08-21T05:48:19;27.50;;;18.00;;
67640;SDS011;54434;50.096;20.082;2022-08-21T05:50:56;30.20;;;17.80;;
67640;SDS011;54434;50.096;20.082;2022-08-21T05:53:38;29.20;;;17.70;;
67640;SDS011;54434;50.096;20.082;2022-08-21T05:56:16;28.10;;;16.10;;
67640;SDS011;54434;50.096;20.082;2022-08-21T05:58:52;26.00;;;16.90;;
67640;SDS011;54434;50.096;20.082;2022-08-21T06:01:28;25.20;;;16.80;;
67640;SDS011;54434;50.096;20.082;2022-08-21T06:04:06;27.60;;;15.70;;
67640;SDS011;54434;50.096;20.082;2022-08-21T06:06:42;27.90;;;16.00;;
67640;SDS011;54434;50.096;20.082;2022-08-21T06:09:18;25.30;;;16.40;;
67640;SDS011;54434;50.096;20.082;2022-08-21T06:11:54;23.10;;;15.10;;
67640;SDS011;54434;50.096;20.082;2022-08-21T06:14:31;25.50;;;17.20;;
67640;SDS011;54434;50.096;20.082;2022-08-21T06:17:09;25.20;;;16.40;;
67640;SDS011;54434;50.096;20.082;2022-08-21T06:19:49;26.60;;;16.10;;
67640;SDS011;54434;50.096;20.082;2022-08-21T06:22:27;28.10;;;16.60;;
67640;SDS011;54434;50.096;20.082;2022-08-21T06:25:04;24.10;;;15.40;;
67640;SDS011;54434;50.096;20.082;2022-08-21T06:27:42;28.50;;;15.70;;
67640;SDS011;54434;50.096;20.082;2022-08-21T06:30:19;29.20;;;20.20;;
67640;SDS011;54434;50.096;20.082;2022-08-21T06:32:55;25.90;;;16.20;;
67640;SDS011;54434;50.096;20.082;2022-08-21T06:35:32;27.10;;;16.70;;
67640;SDS011;54434;50.096;20.082;2022-08-21T06:40:48;25.40;;;16.00;;
67640;SDS011;54434;50.096;20.082;2022-08-21T06:43:24;22.00;;;14.50;;
67640;SDS011;54434;50.096;20.082;2022-08-21T06:46:11;22.90;;;14.90;;
67640;SDS011;54434;50.096;20.082;2022-08-21T06:48:48;26.90;;;16.20;;
67640;SDS011;54434;50.096;20.082;2022-08-21T06:51:24;29.00;;;17.40;;
67640;SDS011;54434;50.096;20.082;2022-08-21T06:54:01;28.80;;;16.00;;
67640;SDS011;54434;50.096;20.082;2022-08-21T06:56:37;33.40;;;18.60;;
67640;SDS011;54434;50.096;20.082;2022-08-21T06:59:13;25.40;;;16.00;;
67640;SDS011;54434;50.096;20.082;2022-08-21T07:01:49;31.30;;;17.50;;
67640;SDS011;54434;50.096;20.082;2022-08-21T07:04:26;24.70;;;15.80;;
67640;SDS011;54434;50.096;20.082;2022-08-21T07:07:03;27.00;;;15.50;;
67640;SDS011;54434;50.096;20.082;2022-08-21T07:09:39;25.60;;;15.90;;
67640;SDS011;54434;50.096;20.082;2022-08-21T07:12:15;22.90;;;16.00;;
67640;SDS011;54434;50.096;20.082;2022-08-21T07:14:51;28.20;;;16.50;;
67640;SDS011;54434;50.096;20.082;2022-08-21T07:17:27;26.20;;;15.80;;
67640;SDS011;54434;50.096;20.082;2022-08-21T07:20:04;22.70;;;14.70;;
67640;SDS011;54434;50.096;20.082;2022-08-21T07:22:42;23.00;;;15.20;;
67640;SDS011;54434;50.096;20.082;2022-08-21T07:25:18;20.30;;;15.00;;
67640;SDS011;54434;50.096;20.082;2022-08-21T07:27:55;28.10;;;17.20;;
67640;SDS011;54434;50.096;20.082;2022-08-21T07:30:31;25.30;;;16.80;;
67640;SDS011;54434;50.096;20.082;2022-08-21T07:33:07;40.00;;;17.80;;
67640;SDS011;54434;50.096;20.082;2022-08-21T07:35:43;35.10;;;19.00;;
67640;SDS011;54434;50.096;20.082;2022-08-21T07:38:20;27.80;;;17.90;;
67640;SDS011;54434;50.096;20.082;2022-08-21T07:40:58;24.10;;;15.40;;
67640;SDS011;54434;50.096;20.082;2022-08-21T07:43:38;23.50;;;15.60;;
67640;SDS011;54434;50.096;20.082;2022-08-21T07:46:18;23.50;;;15.40;;
67640;SDS011;54434;50.096;20.082;2022-08-21T07:48:55;29.30;;;16.70;;
67640;SDS011;54434;50.096;20.082;2022-08-21T07:51:32;27.60;;;16.30;;
67640;SDS011;54434;50.096;20.082;2022-08-21T07:54:08;28.00;;;16.40;;
67640;SDS011;54434;50.096;20.082;2022-08-21T07:56:49;23.10;;;16.20;;
67640;SDS011;54434;50.096;20.082;2022-08-21T07:59:25;27.00;;;16.30;;
67640;SDS011;54434;50.096;20.082;2022-08-21T08:02:01;21.40;;;13.70;;
67640;SDS011;54434;50.096;20.082;2022-08-21T08:04:37;23.10;;;16.00;;
67640;SDS011;54434;50.096;20.082;2022-08-21T08:07:23;25.10;;;16.00;;
67640;SDS011;54434;50.096;20.082;2022-08-21T08:10:00;26.60;;;18.40;;
67640;SDS011;54434;50.096;20.082;2022-08-21T08:12:39;24.90;;;17.60;;
67640;SDS011;54434;50.096;20.082;2022-08-21T08:15:21;31.70;;;20.20;;
67640;SDS011;54434;50.096;20.082;2022-08-21T08:17:58;26.60;;;17.00;;
67640;SDS011;54434;50.096;20.082;2022-08-21T08:20:35;26.90;;;16.90;;
67640;SDS011;54434;50.096;20.082;2022-08-21T08:23:12;24.40;;;16.20;;
67640;SDS011;54434;50.096;20.082;2022-08-21T08:25:49;26.10;;;16.00;;
67640;SDS011;54434;50.096;20.082;2022-08-21T08:28:25;25.20;;;16.20;;
67640;SDS011;54434;50.096;20.082;2022-08-21T08:31:02;23.70;;;16.40;;
67640;SDS011;54434;50.096;20.082;2022-08-21T08:33:38;25.10;;;16.00;;
67640;SDS011;54434;50.096;20.082;2022-08-21T08:36:18;25.80;;;16.20;;
67640;SDS011;54434;50.096;20.082;2022-08-21T08:39:06;28.90;;;17.60;;
67640;SDS011;54434;50.096;20.082;2022-08-21T08:41:45;33.30;;;21.20;;
67640;SDS011;54434;50.096;20.082;2022-08-21T08:44:31;23.10;;;16.30;;
67640;SDS011;54434;50.096;20.082;2022-08-21T08:47:08;24.40;;;15.80;;
67640;SDS011;54434;50.096;20.082;2022-08-21T08:49:55;26.80;;;15.70;;
67640;SDS011;54434;50.096;20.082;2022-08-21T08:52:39;23.30;;;15.50;;
67640;SDS011;54434;50.096;20.082;2022-08-21T08:55:23;26.80;;;15.80;;
67640;SDS011;54434;50.096;20.082;2022-08-21T08:58:06;23.10;;;15.30;;
67640;SDS011;54434;50.096;20.082;2022-08-21T09:00:49;21.40;;;15.20;;
67640;SDS011;54434;50.096;20.082;2022-08-21T09:03:29;21.30;;;14.00;;
67640;SDS011;54434;50.096;20.082;2022-08-21T09:06:15;21.90;;;14.50;;
67640;SDS011;54434;50.096;20.082;2022-08-21T09:09:20;36.00;;;21.00;;
67640;SDS011;54434;50.096;20.082;2022-08-21T09:12:10;25.10;;;15.60;;
67640;SDS011;54434;50.096;20.082;2022-08-21T09:15:06;25.20;;;15.00;;
67640;SDS011;54434;50.096;20.082;2022-08-21T09:18:11;23.90;;;14.80;;
67640;SDS011;54434;50.096;20.082;2022-08-21T09:21:06;27.50;;;15.50;;
67640;SDS011;54434;50.096;20.082;2022-08-21T09:23:57;26.90;;;15.20;;
67640;SDS011;54434;50.096;20.082;2022-08-21T09:26:52;23.00;;;14.20;;
67640;SDS011;54434;50.096;20.082;2022-08-21T09:32:18;23.00;;;14.20;;
67640;SDS011;54434;50.096;20.082;2022-08-21T09:35:14;25.90;;;14.10;;
67640;SDS011;54434;50.096;20.082;2022-08-21T09:37:56;23.30;;;14.50;;
67640;SDS011;54434;50.096;20.082;2022-08-21T09:40:40;22.20;;;14.30;;
67640;SDS011;54434;50.096;20.082;2022-08-21T09:43:22;21.50;;;13.70;;
67640;SDS011;54434;50.096;20.082;2022-08-21T09:46:11;18.50;;;13.20;;
67640;SDS011;54434;50.096;20.082;2022-08-21T09:48:56;22.90;;;13.70;;
67640;SDS011;54434;50.096;20.082;2022-08-21T09:51:36;18.10;;;13.00;;
67640;SDS011;54434;50.096;20.082;2022-08-21T09:54:18;20.80;;;13.20;;
67640;SDS011;54434;50.096;20.082;2022-08-21T09:57:05;18.90;;;13.50;;
67640;SDS011;54434;50.096;20.082;2022-08-21T10:00:26;17.90;;;12.60;;
67640;SDS011;54434;50.096;20.082;2022-08-21T10:03:20;22.30;;;12.60;;
67640;SDS011;54434;50.096;20.082;2022-08-21T10:06:03;20.10;;;13.10;;
67640;SDS011;54434;50.096;20.082;2022-08-21T10:08:43;20.50;;;12.90;;
67640;SDS011;54434;50.096;20.082;2022-08-21T10:11:27;18.60;;;12.50;;
67640;SDS011;54434;50.096;20.082;2022-08-21T10:14:16;20.70;;;12.50;;
67640;SDS011;54434;50.096;20.082;2022-08-21T10:17:06;22.80;;;13.70;;
67640;SDS011;54434;50.096;20.082;2022-08-21T10:19:59;20.80;;;14.20;;
67640;SDS011;54434;50.096;20.082;2022-08-21T10:23:02;22.20;;;13.30;;
67640;SDS011;54434;50.096;20.082;2022-08-21T10:25:55;18.30;;;12.50;;
67640;SDS011;54434;50.096;20.082;2022-08-21T10:28:59;19.60;;;11.90;;
67640;SDS011;54434;50.096;20.082;2022-08-21T10:31:50;19.90;;;12.40;;
67640;SDS011;54434;50.096;20.082;2022-08-21T10:34:48;20.50;;;13.00;;
67640;SDS011;54434;50.096;20.082;2022-08-21T10:37:48;20.10;;;12.70;;
67640;SDS011;54434;50.096;20.082;2022-08-21T10:40:39;19.50;;;12.50;;
67640;SDS011;54434;50.096;20.082;2022-08-21T10:43:28;15.40;;;11.60;;
67640;SDS011;54434;50.096;20.082;2022-08-21T10:46:25;22.60;;;12.70;;
67640;SDS011;54434;50.096;20.082;2022-08-21T10:49:22;22.60;;;12.10;;
67640;SDS011;54434;50.096;20.082;2022-08-21T10:52:42;18.70;;;12.00;;
67640;SDS011;54434;50.096;20.082;2022-08-21T10:55:38;21.90;;;12.30;;
67640;SDS011;54434;50.096;20.082;2022-08-21T10:58:25;20.10;;;12.30;;
67640;SDS011;54434;50.096;20.082;2022-08-21T11:01:07;16.30;;;12.20;;
67640;SDS011;54434;50.096;20.082;2022-08-21T11:03:51;17.60;;;12.00;;
67640;SDS011;54434;50.096;20.082;2022-08-21T11:06:39;21.10;;;12.60;;
67640;SDS011;54434;50.096;20.082;2022-08-21T11:09:24;20.10;;;12.50;;
67640;SDS011;54434;50.096;20.082;2022-08-21T11:12:10;19.50;;;12.00;;
67640;SDS011;54434;50.096;20.082;2022-08-21T11:15:04;18.50;;;11.90;;
67640;SDS011;54434;50.096;20.082;2022-08-21T11:18:15;18.10;;;12.10;;
67640;SDS011;54434;50.096;20.082;2022-08-21T11:21:06;19.20;;;12.90;;
67640;SDS011;54434;50.096;20.082;2022-08-21T11:23:54;16.80;;;12.80;;
67640;SDS011;54434;50.096;20.082;2022-08-21T11:26:44;15.30;;;11.60;;
67640;SDS011;54434;50.096;20.082;2022-08-21T11:29:29;22.30;;;12.20;;
67640;SDS011;54434;50.096;20.082;2022-08-21T11:35:43;17.70;;;9.60;;
67640;SDS011;54434;50.096;20.082;2022-08-21T11:38:34;17.30;;;8.80;;
67640;SDS011;54434;50.096;20.082;2022-08-21T11:41:25;16.10;;;7.70;;
67640;SDS011;54434;50.096;20.082;2022-08-21T11:44:14;12.60;;;7.20;;
67640;SDS011;54434;50.096;20.082;2022-08-21T11:47:03;11.00;;;6.80;;
67640;SDS011;54434;50.096;20.082;2022-08-21T11:50:10;11.80;;;6.10;;
67640;SDS011;54434;50.096;20.082;2022-08-21T11:53:19;12.30;;;5.90;;
67640;SDS011;54434;50.096;20.082;2022-08-21T11:56:06;9.50;;;5.60;;
67640;SDS011;54434;50.096;20.082;2022-08-21T11:58:49;11.30;;;6.10;;
67640;SDS011;54434;50.096;20.082;2022-08-21T12:01:33;10.70;;;5.50;;
67640;SDS011;54434;50.096;20.082;2022-08-21T12:04:24;9.30;;;5.20;;
67640;SDS011;54434;50.096;20.082;2022-08-21T12:07:17;9.40;;;4.20;;
67640;SDS011;54434;50.096;20.082;2022-08-21T12:10:13;7.70;;;4.10;;
67640;SDS011;54434;50.096;20.082;2022-08-21T12:12:53;9.00;;;4.10;;
67640;SDS011;54434;50.096;20.082;2022-08-21T12:15:42;7.00;;;4.00;;
67640;SDS011;54434;50.096;20.082;2022-08-21T12:18:31;5.70;;;3.40;;
67640;SDS011;54434;50.096;20.082;2022-08-21T12:21:21;8.60;;;3.50;;
67640;SDS011;54434;50.096;20.082;2022-08-21T12:24:19;8.20;;;4.10;;
67640;SDS011;54434;50.096;20.082;2022-08-21T12:27:28;6.90;;;3.80;;
67640;SDS011;54434;50.096;20.082;2022-08-21T12:30:35;6.50;;;3.90;;
67640;SDS011;54434;50.096;20.082;2022-08-21T12:33:26;7.50;;;5.00;;
67640;SDS011;54434;50.096;20.082;2022-08-21T12:36:10;11.70;;;6.50;;
67640;SDS011;54434;50.096;20.082;2022-08-21T12:38:51;10.20;;;6.40;;
67640;SDS011;54434;50.096;20.082;2022-08-21T12:41:34;10.60;;;6.50;;
67640;SDS011;54434;50.096;20.082;2022-08-21T12:44:24;9.50;;;6.40;;
67640;SDS011;54434;50.096;20.082;2022-08-21T12:47:16;12.80;;;6.90;;
67640;SDS011;54434;50.096;20.082;2022-08-21T12:50:03;11.20;;;6.40;;
67640;SDS011;54434;50.096;20.082;2022-08-21T12:52:48;11.10;;;6.10;;
67640;SDS011;54434;50.096;20.082;2022-08-21T12:55:33;10.00;;;5.80;;
67640;SDS011;54434;50.096;20.082;2022-08-21T12:58:22;9.90;;;5.80;;
67640;SDS011;54434;50.096;20.082;2022-08-21T13:01:03;9.80;;;5.90;;
67640;SDS011;54434;50.096;20.082;2022-08-21T13:03:42;8.60;;;5.90;;
67640;SDS011;54434;50.096;20.082;2022-08-21T13:06:37;9.80;;;5.50;;
67640;SDS011;54434;50.096;20.082;2022-08-21T13:09:18;9.30;;;5.40;;
67640;SDS011;54434;50.096;20.082;2022-08-21T13:12:06;9.20;;;5.20;;
67640;SDS011;54434;50.096;20.082;2022-08-21T13:14:45;9.90;;;4.80;;
67640;SDS011;54434;50.096;20.082;2022-08-21T13:17:25;8.70;;;5.60;;
67640;SDS011;54434;50.096;20.082;2022-08-21T13:20:09;9.60;;;4.80;;
67640;SDS011;54434;50.096;20.082;2022-08-21T13:22:56;9.00;;;5.40;;
67640;SDS011;54434;50.096;20.082;2022-08-21T13:25:38;8.80;;;4.60;;
67640;SDS011;54434;50.096;20.082;2022-08-21T13:28:14;8.80;;;4.50;;
67640;SDS011;54434;50.096;20.082;2022-08-21T13:30:54;7.60;;;3.80;;
67640;SDS011;54434;50.096;20.082;2022-08-21T13:33:31;10.70;;;4.10;;
67640;SDS011;54434;50.096;20.082;2022-08-21T13:36:15;7.20;;;4.10;;
67640;SDS011;54434;50.096;20.082;2022-08-21T13:38:55;6.10;;;3.60;;
67640;SDS011;54434;50.096;20.082;2022-08-21T13:41:35;5.90;;;3.20;;
67640;SDS011;54434;50.096;20.082;2022-08-21T13:44:21;6.20;;;3.10;;
67640;SDS011;54434;50.096;20.082;2022-08-21T13:47:09;8.50;;;3.00;;
67640;SDS011;54434;50.096;20.082;2022-08-21T13:49:51;6.40;;;3.50;;
67640;SDS011;54434;50.096;20.082;2022-08-21T13:52:31;6.20;;;3.10;;
67640;SDS011;54434;50.096;20.082;2022-08-21T13:55:15;7.00;;;3.20;;
67640;SDS011;54434;50.096;20.082;2022-08-21T13:58:04;6.20;;;2.70;;
67640;SDS011;54434;50.096;20.082;2022-08-21T14:00:48;7.60;;;2.80;;
67640;SDS011;54434;50.096;20.082;2022-08-21T14:03:36;6.40;;;3.10;;
67640;SDS011;54434;50.096;20.082;2022-08-21T14:06:19;5.50;;;3.00;;
67640;SDS011;54434;50.096;20.082;2022-08-21T14:09:02;6.80;;;3.00;;
67640;SDS011;54434;50.096;20.082;2022-08-21T14:11:44;7.10;;;3.10;;
67640;SDS011;54434;50.096;20.082;2022-08-21T14:14:25;5.70;;;3.00;;
67640;SDS011;54434;50.096;20.082;2022-08-21T14:17:06;7.30;;;3.40;;
67640;SDS011;54434;50.096;20.082;2022-08-21T14:20:08;5.90;;;3.40;;
67640;SDS011;54434;50.096;20.082;2022-08-21T14:22:47;6.40;;;3.30;;
67640;SDS011;54434;50.096;20.082;2022-08-21T14:25:38;5.90;;;3.50;;
67640;SDS011;54434;50.096;20.082;2022-08-21T14:28:26;5.60;;;3.30;;
67640;SDS011;54434;50.096;20.082;2022-08-21T14:31:21;7.10;;;3.60;;
67640;SDS011;54434;50.096;20.082;2022-08-21T14:34:02;7.20;;;3.30;;
67640;SDS011;54434;50.096;20.082;2022-08-21T14:36:54;6.90;;;3.70;;
67640;SDS011;54434;50.096;20.082;2022-08-21T14:39:30;6.10;;;3.40;;
67640;SDS011;54434;50.096;20.082;2022-08-21T14:42:07;6.60;;;3.80;;
67640;SDS011;54434;50.096;20.082;2022-08-21T14:44:43;7.00;;;3.50;;
67640;SDS011;54434;50.096;20.082;2022-08-21T14:47:20;7.20;;;3.80;;
67640;SDS011;54434;50.096;20.082;2022-08-21T14:49:56;5.30;;;3.70;;
67640;SDS011;54434;50.096;20.082;2022-08-21T14:52:32;6.40;;;3.60;;
67640;SDS011;54434;50.096;20.082;2022-08-21T14:55:11;7.30;;;3.60;;
67640;SDS011;54434;50.096;20.082;2022-08-21T14:57:50;6.30;;;3.80;;
67640;SDS011;54434;50.096;20.082;2022-08-21T15:00:28;7.40;;;3.60;;
67640;SDS011;54434;50.096;20.082;2022-08-21T15:03:08;5.20;;;3.30;;
67640;SDS011;54434;50.096;20.082;2022-08-21T15:05:44;5.90;;;3.30;;
67640;SDS011;54434;50.096;20.082;2022-08-21T15:08:20;5.60;;;3.20;;
67640;SDS011;54434;50.096;20.082;2022-08-21T15:10:56;5.70;;;3.30;;
67640;SDS011;54434;50.096;20.082;2022-08-21T15:13:45;6.20;;;3.30;;
67640;SDS011;54434;50.096;20.082;2022-08-21T15:16:26;5.60;;;3.40;;
67640;SDS011;54434;50.096;20.082;2022-08-21T15:19:04;5.40;;;3.20;;
67640;SDS011;54434;50.096;20.082;2022-08-21T15:21:40;6.00;;;3.30;;
67640;SDS011;54434;50.096;20.082;2022-08-21T15:24:16;5.80;;;3.30;;
67640;SDS011;54434;50.096;20.082;2022-08-21T15:26:54;6.10;;;3.30;;
67640;SDS011;54434;50.096;20.082;2022-08-21T15:29:32;4.80;;;3.40;;
67640;SDS011;54434;50.096;20.082;2022-08-21T15:32:23;4.90;;;3.00;;
67640;SDS011;54434;50.096;20.082;2022-08-21T15:35:04;6.40;;;3.30;;
67640;SDS011;54434;50.096;20.082;2022-08-21T15:37:41;6.20;;;2.90;;
67640;SDS011;54434;50.096;20.082;2022-08-21T15:40:18;6.20;;;3.10;;
67640;SDS011;54434;50.096;20.082;2022-08-21T15:42:59;4.50;;;2.90;;
67640;SDS011;54434;50.096;20.082;2022-08-21T15:45:37;5.00;;;2.80;;
67640;SDS011;54434;50.096;20.082;2022-08-21T15:48:13;7.80;;;2.90;;
67640;SDS011;54434;50.096;20.082;2022-08-21T15:50:50;5.90;;;2.50;;